sensor_id;sensor_type;location;lat;lon;timestamp;P1;durP1;ratioP1;P2;durP2;ratioP2
24547;SDS011;12713;51.624;4.924;2023-02-25T00:00:50;14.32;;;2.33;;
24547;SDS011;12713;51.624;4.924;2023-02-25T00:03:17;11.77;;;2.42;;
24547;SDS011;12713;51.624;4.924;2023-02-25T00:05:43;10.95;;;2.63;;
24547;SDS011;12713;51.624;4.924;2023-02-25T00:08:09;14.07;;;2.65;;
24547;SDS011;12713;51.624;4.924;2023-02-25T00:10:35;20.77;;;2.58;;
24547;SDS011;12713;51.624;4.924;2023-02-25T00:13:04;11.05;;;3.28;;
24547;SDS011;12713;51.624;4.924;2023-02-25T00:15:30;15.40;;;2.95;;
24547;SDS011;12713;51.624;4.924;2023-02-25T00:17:56;16.90;;;2.28;;
24547;SDS011;12713;51.624;4.924;2023-02-25T00:20:22;10.27;;;2.53;;
24547;SDS011;12713;51.624;4.924;2023-02-25T00:22:48;13.65;;;2.40;;
24547;SDS011;12713;51.624;4.924;2023-02-25T00:25:14;11.60;;;2.00;;
24547;SDS011;12713;51.624;4.924;2023-02-25T00:27:40;15.23;;;2.45;;
24547;SDS011;12713;51.624;4.924;2023-02-25T00:30:07;14.65;;;3.00;;
24547;SDS011;12713;51.624;4.924;2023-02-25T00:32:35;13.50;;;2.50;;
24547;SDS011;12713;51.624;4.924;2023-02-25T00:35:01;9.85;;;2.22;;
24547;SDS011;12713;51.624;4.924;2023-02-25T00:37:27;15.63;;;3.15;;
24547;SDS011;12713;51.624;4.924;2023-02-25T00:39:53;11.07;;;2.95;;
24547;SDS011;12713;51.624;4.924;2023-02-25T00:42:19;16.05;;;3.05;;
24547;SDS011;12713;51.624;4.924;2023-02-25T00:44:46;13.95;;;2.50;;
24547;SDS011;12713;51.624;4.924;2023-02-25T00:47:14;10.05;;;2.65;;
24547;SDS011;12713;51.624;4.924;2023-02-25T00:49:40;19.30;;;2.78;;
24547;SDS011;12713;51.624;4.924;2023-02-25T00:52:06;13.25;;;2.53;;
24547;SDS011;12713;51.624;4.924;2023-02-25T00:54:33;10.30;;;1.95;;
24547;SDS011;12713;51.624;4.924;2023-02-25T00:56:59;12.32;;;2.88;;
24547;SDS011;12713;51.624;4.924;2023-02-25T00:59:25;16.90;;;3.45;;
24547;SDS011;12713;51.624;4.924;2023-02-25T01:01:51;15.13;;;2.13;;
24547;SDS011;12713;51.624;4.924;2023-02-25T01:04:17;11.48;;;2.63;;
24547;SDS011;12713;51.624;4.924;2023-02-25T01:06:43;10.13;;;2.33;;
24547;SDS011;12713;51.624;4.924;2023-02-25T01:09:10;13.90;;;2.58;;
24547;SDS011;12713;51.624;4.924;2023-02-25T01:11:38;12.20;;;2.50;;
24547;SDS011;12713;51.624;4.924;2023-02-25T01:14:05;9.43;;;1.95;;
24547;SDS011;12713;51.624;4.924;2023-02-25T01:16:32;14.38;;;3.03;;
24547;SDS011;12713;51.624;4.924;2023-02-25T01:18:59;12.02;;;2.40;;
24547;SDS011;12713;51.624;4.924;2023-02-25T01:21:30;11.40;;;2.35;;
24547;SDS011;12713;51.624;4.924;2023-02-25T01:24:09;13.27;;;3.00;;
24547;SDS011;12713;51.624;4.924;2023-02-25T01:26:36;17.05;;;2.67;;
24547;SDS011;12713;51.624;4.924;2023-02-25T01:29:06;9.10;;;2.35;;
24547;SDS011;12713;51.624;4.924;2023-02-25T01:31:32;19.15;;;4.70;;
24547;SDS011;12713;51.624;4.924;2023-02-25T01:33:59;15.90;;;5.50;;
24547;SDS011;12713;51.624;4.924;2023-02-25T01:36:25;15.60;;;3.60;;
24547;SDS011;12713;51.624;4.924;2023-02-25T01:38:52;20.85;;;4.10;;
24547;SDS011;12713;51.624;4.924;2023-02-25T01:41:18;16.88;;;3.42;;
24547;SDS011;12713;51.624;4.924;2023-02-25T01:46:29;14.50;;;3.70;;
24547;SDS011;12713;51.624;4.924;2023-02-25T01:48:55;16.02;;;3.47;;
24547;SDS011;12713;51.624;4.924;2023-02-25T01:51:21;17.27;;;3.03;;
24547;SDS011;12713;51.624;4.924;2023-02-25T01:53:51;10.93;;;2.03;;
24547;SDS011;12713;51.624;4.924;2023-02-25T01:56:19;13.68;;;2.53;;
24547;SDS011;12713;51.624;4.924;2023-02-25T01:58:47;18.05;;;3.03;;
24547;SDS011;12713;51.624;4.924;2023-02-25T02:01:14;15.57;;;2.75;;
24547;SDS011;12713;51.624;4.924;2023-02-25T02:03:41;15.70;;;3.15;;
24547;SDS011;12713;51.624;4.924;2023-02-25T02:06:18;12.77;;;2.70;;
24547;SDS011;12713;51.624;4.924;2023-02-25T02:08:45;15.27;;;2.97;;
24547;SDS011;12713;51.624;4.924;2023-02-25T02:11:12;15.05;;;3.00;;
24547;SDS011;12713;51.624;4.924;2023-02-25T02:13:40;18.17;;;2.50;;
24547;SDS011;12713;51.624;4.924;2023-02-25T02:18:55;17.05;;;3.17;;
24547;SDS011;12713;51.624;4.924;2023-02-25T02:39:27;21.90;;;3.97;;
24547;SDS011;12713;51.624;4.924;2023-02-25T02:41:58;9.00;;;1.98;;
24547;SDS011;12713;51.624;4.924;2023-02-25T02:44:28;19.17;;;2.95;;
24547;SDS011;12713;51.624;4.924;2023-02-25T02:46:59;16.52;;;2.83;;
24547;SDS011;12713;51.624;4.924;2023-02-25T02:49:37;14.10;;;2.83;;
24547;SDS011;12713;51.624;4.924;2023-02-25T02:52:06;14.05;;;3.28;;
24547;SDS011;12713;51.624;4.924;2023-02-25T02:54:38;20.25;;;3.88;;
24547;SDS011;12713;51.624;4.924;2023-02-25T02:57:05;15.68;;;3.25;;
24547;SDS011;12713;51.624;4.924;2023-02-25T02:59:34;14.05;;;2.50;;
24547;SDS011;12713;51.624;4.924;2023-02-25T03:04:36;21.35;;;3.63;;
24547;SDS011;12713;51.624;4.924;2023-02-25T03:07:03;19.27;;;3.88;;
24547;SDS011;12713;51.624;4.924;2023-02-25T03:09:32;12.32;;;2.60;;
24547;SDS011;12713;51.624;4.924;2023-02-25T03:11:59;23.65;;;2.83;;
24547;SDS011;12713;51.624;4.924;2023-02-25T03:14:25;23.45;;;2.40;;
24547;SDS011;12713;51.624;4.924;2023-02-25T03:22:08;14.38;;;3.03;;
24547;SDS011;12713;51.624;4.924;2023-02-25T03:24:44;29.27;;;3.67;;
24547;SDS011;12713;51.624;4.924;2023-02-25T03:27:23;21.48;;;3.70;;
24547;SDS011;12713;51.624;4.924;2023-02-25T03:29:49;20.75;;;3.05;;
24547;SDS011;12713;51.624;4.924;2023-02-25T03:32:16;17.23;;;3.08;;
24547;SDS011;12713;51.624;4.924;2023-02-25T03:34:47;21.67;;;3.20;;
24547;SDS011;12713;51.624;4.924;2023-02-25T03:37:18;25.02;;;4.93;;
24547;SDS011;12713;51.624;4.924;2023-02-25T03:39:47;20.60;;;3.65;;
24547;SDS011;12713;51.624;4.924;2023-02-25T03:42:15;13.13;;;2.92;;
24547;SDS011;12713;51.624;4.924;2023-02-25T03:44:45;26.83;;;3.67;;
24547;SDS011;12713;51.624;4.924;2023-02-25T03:47:12;15.88;;;2.88;;
24547;SDS011;12713;51.624;4.924;2023-02-25T03:49:46;14.38;;;2.58;;
24547;SDS011;12713;51.624;4.924;2023-02-25T03:52:13;23.15;;;3.83;;
24547;SDS011;12713;51.624;4.924;2023-02-25T03:54:41;22.17;;;3.53;;
24547;SDS011;12713;51.624;4.924;2023-02-25T03:57:07;16.00;;;2.92;;
24547;SDS011;12713;51.624;4.924;2023-02-25T03:59:33;18.45;;;2.85;;
24547;SDS011;12713;51.624;4.924;2023-02-25T04:02:00;19.27;;;3.20;;
24547;SDS011;12713;51.624;4.924;2023-02-25T04:04:26;16.70;;;3.55;;
24547;SDS011;12713;51.624;4.924;2023-02-25T04:06:52;16.50;;;4.22;;
24547;SDS011;12713;51.624;4.924;2023-02-25T04:09:18;14.13;;;2.45;;
24547;SDS011;12713;51.624;4.924;2023-02-25T04:11:44;17.90;;;2.97;;
24547;SDS011;12713;51.624;4.924;2023-02-25T04:14:12;11.52;;;2.53;;
24547;SDS011;12713;51.624;4.924;2023-02-25T04:16:39;7.75;;;2.05;;
24547;SDS011;12713;51.624;4.924;2023-02-25T04:19:05;9.55;;;1.88;;
24547;SDS011;12713;51.624;4.924;2023-02-25T04:21:32;12.65;;;2.17;;
24547;SDS011;12713;51.624;4.924;2023-02-25T04:24:03;6.50;;;1.77;;
24547;SDS011;12713;51.624;4.924;2023-02-25T04:26:30;11.85;;;2.17;;
24547;SDS011;12713;51.624;4.924;2023-02-25T04:28:56;8.90;;;1.85;;
24547;SDS011;12713;51.624;4.924;2023-02-25T04:31:23;14.32;;;2.35;;
24547;SDS011;12713;51.624;4.924;2023-02-25T04:33:49;15.43;;;2.00;;
24547;SDS011;12713;51.624;4.924;2023-02-25T04:38:47;12.95;;;2.38;;
24547;SDS011;12713;51.624;4.924;2023-02-25T04:41:13;12.55;;;2.75;;
24547;SDS011;12713;51.624;4.924;2023-02-25T04:43:39;11.73;;;2.28;;
24547;SDS011;12713;51.624;4.924;2023-02-25T04:46:05;12.35;;;2.70;;
24547;SDS011;12713;51.624;4.924;2023-02-25T04:48:31;11.52;;;2.03;;
24547;SDS011;12713;51.624;4.924;2023-02-25T04:51:01;12.40;;;2.30;;
24547;SDS011;12713;51.624;4.924;2023-02-25T04:53:27;8.27;;;1.83;;
24547;SDS011;12713;51.624;4.924;2023-02-25T04:55:53;14.18;;;1.90;;
24547;SDS011;12713;51.624;4.924;2023-02-25T04:58:19;12.18;;;2.30;;
24547;SDS011;12713;51.624;4.924;2023-02-25T05:00:45;12.32;;;3.03;;
24547;SDS011;12713;51.624;4.924;2023-02-25T05:03:11;9.98;;;3.35;;
24547;SDS011;12713;51.624;4.924;2023-02-25T05:05:37;15.43;;;3.05;;
24547;SDS011;12713;51.624;4.924;2023-02-25T05:08:03;15.20;;;2.55;;
24547;SDS011;12713;51.624;4.924;2023-02-25T05:10:29;12.55;;;2.55;;
24547;SDS011;12713;51.624;4.924;2023-02-25T05:12:55;14.10;;;2.92;;
24547;SDS011;12713;51.624;4.924;2023-02-25T05:15:21;15.18;;;2.65;;
24547;SDS011;12713;51.624;4.924;2023-02-25T05:17:47;12.05;;;2.40;;
24547;SDS011;12713;51.624;4.924;2023-02-25T05:20:13;10.77;;;2.50;;
24547;SDS011;12713;51.624;4.924;2023-02-25T05:22:40;13.65;;;2.35;;
24547;SDS011;12713;51.624;4.924;2023-02-25T05:25:06;15.82;;;2.78;;
24547;SDS011;12713;51.624;4.924;2023-02-25T05:27:33;16.25;;;3.33;;
24547;SDS011;12713;51.624;4.924;2023-02-25T05:29:59;19.02;;;2.88;;
24547;SDS011;12713;51.624;4.924;2023-02-25T05:32:25;20.42;;;3.75;;
24547;SDS011;12713;51.624;4.924;2023-02-25T05:34:51;15.70;;;3.22;;
24547;SDS011;12713;51.624;4.924;2023-02-25T05:37:17;23.65;;;3.10;;
24547;SDS011;12713;51.624;4.924;2023-02-25T05:39:44;22.17;;;3.47;;
24547;SDS011;12713;51.624;4.924;2023-02-25T05:42:10;19.20;;;2.45;;
24547;SDS011;12713;51.624;4.924;2023-02-25T05:44:36;14.65;;;2.45;;
24547;SDS011;12713;51.624;4.924;2023-02-25T05:47:02;18.90;;;3.10;;
24547;SDS011;12713;51.624;4.924;2023-02-25T05:49:28;12.88;;;2.83;;
24547;SDS011;12713;51.624;4.924;2023-02-25T05:51:54;17.17;;;2.63;;
24547;SDS011;12713;51.624;4.924;2023-02-25T05:54:20;12.02;;;1.95;;
24547;SDS011;12713;51.624;4.924;2023-02-25T05:56:49;14.25;;;3.03;;
24547;SDS011;12713;51.624;4.924;2023-02-25T05:59:15;14.73;;;2.35;;
24547;SDS011;12713;51.624;4.924;2023-02-25T06:01:42;11.85;;;2.60;;
24547;SDS011;12713;51.624;4.924;2023-02-25T06:04:09;9.90;;;2.20;;
24547;SDS011;12713;51.624;4.924;2023-02-25T06:06:35;10.98;;;2.00;;
24547;SDS011;12713;51.624;4.924;2023-02-25T06:09:02;12.90;;;2.72;;
24547;SDS011;12713;51.624;4.924;2023-02-25T06:11:30;12.93;;;2.30;;
24547;SDS011;12713;51.624;4.924;2023-02-25T06:13:56;17.17;;;3.33;;
24547;SDS011;12713;51.624;4.924;2023-02-25T06:16:23;9.93;;;2.20;;
24547;SDS011;12713;51.624;4.924;2023-02-25T06:18:49;12.82;;;2.58;;
24547;SDS011;12713;51.624;4.924;2023-02-25T06:21:16;15.45;;;2.95;;
24547;SDS011;12713;51.624;4.924;2023-02-25T06:23:42;20.55;;;3.10;;
24547;SDS011;12713;51.624;4.924;2023-02-25T06:26:10;18.48;;;3.03;;
24547;SDS011;12713;51.624;4.924;2023-02-25T06:28:37;17.13;;;3.63;;
24547;SDS011;12713;51.624;4.924;2023-02-25T06:31:10;11.93;;;2.75;;
24547;SDS011;12713;51.624;4.924;2023-02-25T06:33:37;16.60;;;2.78;;
24547;SDS011;12713;51.624;4.924;2023-02-25T06:36:03;15.88;;;2.63;;
24547;SDS011;12713;51.624;4.924;2023-02-25T06:38:30;18.63;;;2.83;;
24547;SDS011;12713;51.624;4.924;2023-02-25T06:40:56;9.45;;;2.40;;
24547;SDS011;12713;51.624;4.924;2023-02-25T06:43:22;21.67;;;3.33;;
24547;SDS011;12713;51.624;4.924;2023-02-25T06:45:48;14.82;;;2.70;;
24547;SDS011;12713;51.624;4.924;2023-02-25T06:48:14;13.57;;;2.67;;
24547;SDS011;12713;51.624;4.924;2023-02-25T06:50:40;15.73;;;3.08;;
24547;SDS011;12713;51.624;4.924;2023-02-25T06:53:06;17.70;;;3.55;;
24547;SDS011;12713;51.624;4.924;2023-02-25T06:55:32;14.63;;;2.40;;
24547;SDS011;12713;51.624;4.924;2023-02-25T06:57:58;16.17;;;3.42;;
24547;SDS011;12713;51.624;4.924;2023-02-25T07:00:24;25.60;;;4.38;;
24547;SDS011;12713;51.624;4.924;2023-02-25T07:02:50;15.40;;;2.40;;
24547;SDS011;12713;51.624;4.924;2023-02-25T07:05:16;17.50;;;2.78;;
24547;SDS011;12713;51.624;4.924;2023-02-25T07:07:42;30.48;;;4.80;;
24547;SDS011;12713;51.624;4.924;2023-02-25T07:10:09;27.42;;;3.92;;
24547;SDS011;12713;51.624;4.924;2023-02-25T07:12:35;21.67;;;3.30;;
24547;SDS011;12713;51.624;4.924;2023-02-25T07:15:01;22.58;;;3.28;;
24547;SDS011;12713;51.624;4.924;2023-02-25T07:17:28;21.90;;;3.22;;
24547;SDS011;12713;51.624;4.924;2023-02-25T07:19:54;16.95;;;3.15;;
24547;SDS011;12713;51.624;4.924;2023-02-25T07:22:20;20.30;;;2.90;;
24547;SDS011;12713;51.624;4.924;2023-02-25T07:24:46;20.15;;;3.42;;
24547;SDS011;12713;51.624;4.924;2023-02-25T07:27:12;24.27;;;3.85;;
24547;SDS011;12713;51.624;4.924;2023-02-25T07:29:39;23.13;;;3.00;;
24547;SDS011;12713;51.624;4.924;2023-02-25T07:32:05;15.82;;;3.33;;
24547;SDS011;12713;51.624;4.924;2023-02-25T07:34:33;17.38;;;3.40;;
24547;SDS011;12713;51.624;4.924;2023-02-25T07:36:59;24.77;;;3.28;;
24547;SDS011;12713;51.624;4.924;2023-02-25T07:39:25;12.73;;;2.97;;
24547;SDS011;12713;51.624;4.924;2023-02-25T07:41:51;20.02;;;3.63;;
24547;SDS011;12713;51.624;4.924;2023-02-25T07:44:17;20.25;;;3.72;;
24547;SDS011;12713;51.624;4.924;2023-02-25T07:46:43;21.80;;;2.90;;
24547;SDS011;12713;51.624;4.924;2023-02-25T07:49:09;23.88;;;3.78;;
24547;SDS011;12713;51.624;4.924;2023-02-25T07:51:35;23.20;;;3.45;;
24547;SDS011;12713;51.624;4.924;2023-02-25T07:54:02;31.10;;;4.07;;
24547;SDS011;12713;51.624;4.924;2023-02-25T07:56:28;21.27;;;3.90;;
24547;SDS011;12713;51.624;4.924;2023-02-25T07:58:54;16.27;;;2.88;;
24547;SDS011;12713;51.624;4.924;2023-02-25T08:01:22;17.25;;;3.67;;
24547;SDS011;12713;51.624;4.924;2023-02-25T08:03:53;19.83;;;3.72;;
24547;SDS011;12713;51.624;4.924;2023-02-25T08:06:20;24.67;;;4.03;;
24547;SDS011;12713;51.624;4.924;2023-02-25T08:08:46;21.55;;;3.88;;
24547;SDS011;12713;51.624;4.924;2023-02-25T08:11:16;21.20;;;3.60;;
24547;SDS011;12713;51.624;4.924;2023-02-25T08:13:42;18.42;;;3.63;;
24547;SDS011;12713;51.624;4.924;2023-02-25T08:16:09;22.80;;;3.42;;
24547;SDS011;12713;51.624;4.924;2023-02-25T08:18:36;15.23;;;2.85;;
24547;SDS011;12713;51.624;4.924;2023-02-25T08:21:02;18.15;;;3.92;;
24547;SDS011;12713;51.624;4.924;2023-02-25T08:23:29;16.27;;;2.90;;
24547;SDS011;12713;51.624;4.924;2023-02-25T08:25:55;17.63;;;3.15;;
24547;SDS011;12713;51.624;4.924;2023-02-25T08:28:22;18.17;;;3.20;;
24547;SDS011;12713;51.624;4.924;2023-02-25T08:30:49;16.20;;;3.70;;
24547;SDS011;12713;51.624;4.924;2023-02-25T08:33:15;13.52;;;3.00;;
24547;SDS011;12713;51.624;4.924;2023-02-25T08:35:42;18.85;;;3.50;;
24547;SDS011;12713;51.624;4.924;2023-02-25T08:38:08;18.95;;;3.58;;
24547;SDS011;12713;51.624;4.924;2023-02-25T08:40:35;15.13;;;3.85;;
24547;SDS011;12713;51.624;4.924;2023-02-25T08:43:01;16.27;;;3.25;;
24547;SDS011;12713;51.624;4.924;2023-02-25T08:45:27;17.85;;;3.20;;
24547;SDS011;12713;51.624;4.924;2023-02-25T08:47:53;12.57;;;2.88;;
24547;SDS011;12713;51.624;4.924;2023-02-25T08:50:20;20.05;;;3.38;;
24547;SDS011;12713;51.624;4.924;2023-02-25T08:52:48;16.75;;;3.92;;
24547;SDS011;12713;51.624;4.924;2023-02-25T08:55:14;20.35;;;3.13;;
24547;SDS011;12713;51.624;4.924;2023-02-25T08:57:40;18.80;;;3.65;;
24547;SDS011;12713;51.624;4.924;2023-02-25T09:00:07;16.75;;;3.45;;
24547;SDS011;12713;51.624;4.924;2023-02-25T09:02:34;22.20;;;3.00;;
24547;SDS011;12713;51.624;4.924;2023-02-25T09:05:00;19.38;;;3.80;;
24547;SDS011;12713;51.624;4.924;2023-02-25T09:07:26;17.25;;;3.20;;
24547;SDS011;12713;51.624;4.924;2023-02-25T09:09:52;19.05;;;3.28;;
24547;SDS011;12713;51.624;4.924;2023-02-25T09:12:18;18.27;;;3.33;;
24547;SDS011;12713;51.624;4.924;2023-02-25T09:14:44;10.05;;;2.60;;
24547;SDS011;12713;51.624;4.924;2023-02-25T09:17:10;18.23;;;3.45;;
24547;SDS011;12713;51.624;4.924;2023-02-25T09:19:36;16.83;;;2.90;;
24547;SDS011;12713;51.624;4.924;2023-02-25T09:22:03;21.73;;;3.35;;
24547;SDS011;12713;51.624;4.924;2023-02-25T09:24:29;16.33;;;3.08;;
24547;SDS011;12713;51.624;4.924;2023-02-25T09:26:57;15.57;;;3.65;;
24547;SDS011;12713;51.624;4.924;2023-02-25T09:29:26;19.33;;;4.05;;
24547;SDS011;12713;51.624;4.924;2023-02-25T09:31:52;19.67;;;4.03;;
24547;SDS011;12713;51.624;4.924;2023-02-25T09:34:18;21.08;;;3.75;;
24547;SDS011;12713;51.624;4.924;2023-02-25T09:36:45;21.95;;;3.72;;
24547;SDS011;12713;51.624;4.924;2023-02-25T09:39:11;17.70;;;4.15;;
24547;SDS011;12713;51.624;4.924;2023-02-25T09:42:20;13.85;;;3.10;;
24547;SDS011;12713;51.624;4.924;2023-02-25T09:44:28;22.15;;;4.47;;
24547;SDS011;12713;51.624;4.924;2023-02-25T09:46:56;19.30;;;3.38;;
24547;SDS011;12713;51.624;4.924;2023-02-25T09:49:45;19.23;;;3.63;;
24547;SDS011;12713;51.624;4.924;2023-02-25T09:52:18;15.45;;;3.80;;
24547;SDS011;12713;51.624;4.924;2023-02-25T09:54:47;18.90;;;3.65;;
24547;SDS011;12713;51.624;4.924;2023-02-25T09:57:15;16.48;;;3.22;;
24547;SDS011;12713;51.624;4.924;2023-02-25T09:59:43;20.00;;;4.40;;
24547;SDS011;12713;51.624;4.924;2023-02-25T10:04:42;18.00;;;3.13;;
24547;SDS011;12713;51.624;4.924;2023-02-25T10:07:15;18.40;;;3.80;;
24547;SDS011;12713;51.624;4.924;2023-02-25T10:09:58;15.30;;;3.58;;
24547;SDS011;12713;51.624;4.924;2023-02-25T10:17:46;25.52;;;4.03;;
24547;SDS011;12713;51.624;4.924;2023-02-25T10:25:31;10.65;;;2.78;;
24547;SDS011;12713;51.624;4.924;2023-02-25T10:27:59;18.00;;;3.00;;
24547;SDS011;12713;51.624;4.924;2023-02-25T10:33:18;12.77;;;2.97;;
24547;SDS011;12713;51.624;4.924;2023-02-25T10:35:48;19.65;;;3.03;;
24547;SDS011;12713;51.624;4.924;2023-02-25T10:38:17;17.05;;;3.47;;
24547;SDS011;12713;51.624;4.924;2023-02-25T10:40:43;15.30;;;2.70;;
24547;SDS011;12713;51.624;4.924;2023-02-25T10:43:15;16.48;;;3.25;;
24547;SDS011;12713;51.624;4.924;2023-02-25T10:45:43;11.88;;;2.50;;
24547;SDS011;12713;51.624;4.924;2023-02-25T10:48:18;13.35;;;2.13;;
24547;SDS011;12713;51.624;4.924;2023-02-25T10:50:59;13.10;;;2.33;;
24547;SDS011;12713;51.624;4.924;2023-02-25T10:53:27;6.68;;;1.73;;
24547;SDS011;12713;51.624;4.924;2023-02-25T10:55:53;8.43;;;1.80;;
24547;SDS011;12713;51.624;4.924;2023-02-25T10:58:20;7.43;;;1.95;;
24547;SDS011;12713;51.624;4.924;2023-02-25T11:00:57;14.98;;;2.85;;
24547;SDS011;12713;51.624;4.924;2023-02-25T11:03:23;12.90;;;2.65;;
24547;SDS011;12713;51.624;4.924;2023-02-25T11:05:50;4.32;;;1.08;;
24547;SDS011;12713;51.624;4.924;2023-02-25T11:08:27;4.35;;;1.10;;
24547;SDS011;12713;51.624;4.924;2023-02-25T11:11:03;5.47;;;1.05;;
24547;SDS011;12713;51.624;4.924;2023-02-25T11:13:31;8.63;;;1.20;;
24547;SDS011;12713;51.624;4.924;2023-02-25T11:16:00;5.97;;;1.27;;
24547;SDS011;12713;51.624;4.924;2023-02-25T11:18:29;7.53;;;1.42;;
24547;SDS011;12713;51.624;4.924;2023-02-25T11:21:00;6.68;;;1.10;;
24547;SDS011;12713;51.624;4.924;2023-02-25T11:26:04;2.90;;;0.70;;
24547;SDS011;12713;51.624;4.924;2023-02-25T11:31:04;8.45;;;1.70;;
24547;SDS011;12713;51.624;4.924;2023-02-25T11:33:31;3.05;;;0.75;;
24547;SDS011;12713;51.624;4.924;2023-02-25T11:35:58;2.50;;;0.75;;
24547;SDS011;12713;51.624;4.924;2023-02-25T11:38:33;4.55;;;1.30;;
24547;SDS011;12713;51.624;4.924;2023-02-25T11:40:59;2.42;;;0.80;;
24547;SDS011;12713;51.624;4.924;2023-02-25T11:43:26;2.45;;;0.70;;
24547;SDS011;12713;51.624;4.924;2023-02-25T11:46:00;2.20;;;1.00;;
24547;SDS011;12713;51.624;4.924;2023-02-25T11:56:39;2.70;;;1.25;;
24547;SDS011;12713;51.624;4.924;2023-02-25T12:07:23;4.88;;;1.23;;
24547;SDS011;12713;51.624;4.924;2023-02-25T12:30:45;3.83;;;1.00;;
24547;SDS011;12713;51.624;4.924;2023-02-25T12:34:00;4.53;;;0.98;;
24547;SDS011;12713;51.624;4.924;2023-02-25T12:43:54;7.65;;;1.70;;
24547;SDS011;12713;51.624;4.924;2023-02-25T12:49:03;5.40;;;1.13;;
24547;SDS011;12713;51.624;4.924;2023-02-25T13:04:51;9.68;;;1.50;;
24547;SDS011;12713;51.624;4.924;2023-02-25T13:09:58;5.45;;;1.73;;
24547;SDS011;12713;51.624;4.924;2023-02-25T13:25:13;5.97;;;1.73;;
24547;SDS011;12713;51.624;4.924;2023-02-25T13:27:50;5.60;;;1.52;;
24547;SDS011;12713;51.624;4.924;2023-02-25T13:41:31;12.65;;;1.98;;
24547;SDS011;12713;51.624;4.924;2023-02-25T13:49:23;9.43;;;2.72;;
24547;SDS011;12713;51.624;4.924;2023-02-25T13:52:06;10.18;;;2.30;;
24547;SDS011;12713;51.624;4.924;2023-02-25T13:54:42;8.85;;;2.58;;
24547;SDS011;12713;51.624;4.924;2023-02-25T14:02:49;10.10;;;2.20;;
24547;SDS011;12713;51.624;4.924;2023-02-25T14:16:00;9.77;;;1.60;;
24547;SDS011;12713;51.624;4.924;2023-02-25T14:23:40;11.65;;;1.83;;
24547;SDS011;12713;51.624;4.924;2023-02-25T14:28:47;11.10;;;1.85;;
24547;SDS011;12713;51.624;4.924;2023-02-25T14:31:26;10.38;;;2.13;;
24547;SDS011;12713;51.624;4.924;2023-02-25T14:44:38;8.43;;;1.70;;
24547;SDS011;12713;51.624;4.924;2023-02-25T14:47:15;6.63;;;1.50;;
24547;SDS011;12713;51.624;4.924;2023-02-25T14:49:58;6.57;;;1.60;;
24547;SDS011;12713;51.624;4.924;2023-02-25T14:55:09;7.20;;;2.40;;
24547;SDS011;12713;51.624;4.924;2023-02-25T15:08:23;8.50;;;2.15;;
24547;SDS011;12713;51.624;4.924;2023-02-25T15:10:56;8.48;;;2.08;;
24547;SDS011;12713;51.624;4.924;2023-02-25T15:21:33;13.35;;;3.75;;
24547;SDS011;12713;51.624;4.924;2023-02-25T15:24:01;4.63;;;1.52;;
24547;SDS011;12713;51.624;4.924;2023-02-25T15:34:36;6.25;;;1.60;;
24547;SDS011;12713;51.624;4.924;2023-02-25T15:37:16;5.88;;;1.58;;
24547;SDS011;12713;51.624;4.924;2023-02-25T15:42:09;10.18;;;2.22;;
24547;SDS011;12713;51.624;4.924;2023-02-25T15:44:37;9.48;;;1.80;;
24547;SDS011;12713;51.624;4.924;2023-02-25T15:47:09;8.55;;;1.75;;
24547;SDS011;12713;51.624;4.924;2023-02-25T15:49:36;11.80;;;2.00;;
24547;SDS011;12713;51.624;4.924;2023-02-25T15:52:03;7.63;;;1.85;;
24547;SDS011;12713;51.624;4.924;2023-02-25T15:57:00;9.32;;;1.88;;
24547;SDS011;12713;51.624;4.924;2023-02-25T16:07:22;8.02;;;2.45;;
24547;SDS011;12713;51.624;4.924;2023-02-25T16:09:59;9.02;;;2.85;;
24547;SDS011;12713;51.624;4.924;2023-02-25T16:12:27;13.18;;;3.55;;
24547;SDS011;12713;51.624;4.924;2023-02-25T16:14:56;9.10;;;2.72;;
24547;SDS011;12713;51.624;4.924;2023-02-25T16:19:53;7.25;;;2.33;;
24547;SDS011;12713;51.624;4.924;2023-02-25T16:24:50;16.60;;;2.70;;
24547;SDS011;12713;51.624;4.924;2023-02-25T16:37:56;10.63;;;2.13;;
24547;SDS011;12713;51.624;4.924;2023-02-25T16:42:53;8.68;;;2.20;;
24547;SDS011;12713;51.624;4.924;2023-02-25T16:45:21;13.32;;;2.35;;
24547;SDS011;12713;51.624;4.924;2023-02-25T16:47:52;8.25;;;2.13;;
24547;SDS011;12713;51.624;4.924;2023-02-25T16:50:19;11.02;;;2.40;;
24547;SDS011;12713;51.624;4.924;2023-02-25T16:52:47;12.90;;;2.30;;
24547;SDS011;12713;51.624;4.924;2023-02-25T16:55:18;13.23;;;2.35;;
24547;SDS011;12713;51.624;4.924;2023-02-25T16:58:09;11.82;;;2.08;;
24547;SDS011;12713;51.624;4.924;2023-02-25T17:00:31;4.90;;;1.73;;
24547;SDS011;12713;51.624;4.924;2023-02-25T17:02:59;12.32;;;2.75;;
24547;SDS011;12713;51.624;4.924;2023-02-25T17:05:26;7.40;;;2.67;;
24547;SDS011;12713;51.624;4.924;2023-02-25T17:07:57;6.03;;;2.22;;
24547;SDS011;12713;51.624;4.924;2023-02-25T17:10:26;7.82;;;2.40;;
24547;SDS011;12713;51.624;4.924;2023-02-25T17:12:52;5.93;;;2.00;;
24547;SDS011;12713;51.624;4.924;2023-02-25T17:15:26;10.32;;;2.65;;
24547;SDS011;12713;51.624;4.924;2023-02-25T17:20:25;12.00;;;2.45;;
24547;SDS011;12713;51.624;4.924;2023-02-25T17:22:52;10.95;;;2.22;;
24547;SDS011;12713;51.624;4.924;2023-02-25T17:25:19;5.68;;;2.47;;
24547;SDS011;12713;51.624;4.924;2023-02-25T17:27:46;12.52;;;2.47;;
24547;SDS011;12713;51.624;4.924;2023-02-25T17:33:19;7.30;;;2.28;;
24547;SDS011;12713;51.624;4.924;2023-02-25T17:35:46;8.85;;;2.20;;
24547;SDS011;12713;51.624;4.924;2023-02-25T17:38:14;6.60;;;2.10;;
24547;SDS011;12713;51.624;4.924;2023-02-25T17:40:41;11.80;;;2.70;;
24547;SDS011;12713;51.624;4.924;2023-02-25T17:48:19;8.80;;;2.72;;
24547;SDS011;12713;51.624;4.924;2023-02-25T17:50:55;7.38;;;2.70;;
24547;SDS011;12713;51.624;4.924;2023-02-25T17:53:27;12.80;;;3.17;;
24547;SDS011;12713;51.624;4.924;2023-02-25T17:55:54;8.20;;;2.67;;
24547;SDS011;12713;51.624;4.924;2023-02-25T17:58:23;12.48;;;3.65;;
24547;SDS011;12713;51.624;4.924;2023-02-25T18:00:57;9.88;;;3.60;;
24547;SDS011;12713;51.624;4.924;2023-02-25T18:03:25;13.48;;;3.85;;
24547;SDS011;12713;51.624;4.924;2023-02-25T18:08:23;8.05;;;3.17;;
24547;SDS011;12713;51.624;4.924;2023-02-25T18:10:50;13.38;;;3.83;;
24547;SDS011;12713;51.624;4.924;2023-02-25T18:13:40;14.30;;;3.47;;
24547;SDS011;12713;51.624;4.924;2023-02-25T18:18:34;11.70;;;3.00;;
24547;SDS011;12713;51.624;4.924;2023-02-25T18:21:00;5.72;;;2.90;;
24547;SDS011;12713;51.624;4.924;2023-02-25T18:23:26;5.85;;;2.40;;
24547;SDS011;12713;51.624;4.924;2023-02-25T18:26:11;6.57;;;2.75;;
24547;SDS011;12713;51.624;4.924;2023-02-25T18:28:37;11.13;;;4.10;;
24547;SDS011;12713;51.624;4.924;2023-02-25T18:31:03;14.38;;;5.68;;
24547;SDS011;12713;51.624;4.924;2023-02-25T18:33:29;18.55;;;6.07;;
24547;SDS011;12713;51.624;4.924;2023-02-25T18:35:55;15.32;;;5.57;;
24547;SDS011;12713;51.624;4.924;2023-02-25T18:38:23;20.80;;;6.35;;
24547;SDS011;12713;51.624;4.924;2023-02-25T18:40:50;11.00;;;5.35;;
24547;SDS011;12713;51.624;4.924;2023-02-25T18:43:17;12.68;;;5.75;;
24547;SDS011;12713;51.624;4.924;2023-02-25T18:45:44;14.65;;;6.32;;
24547;SDS011;12713;51.624;4.924;2023-02-25T18:48:10;10.18;;;5.55;;
24547;SDS011;12713;51.624;4.924;2023-02-25T18:50:37;13.77;;;5.20;;
24547;SDS011;12713;51.624;4.924;2023-02-25T18:53:05;12.70;;;4.97;;
24547;SDS011;12713;51.624;4.924;2023-02-25T18:55:34;13.23;;;6.25;;
24547;SDS011;12713;51.624;4.924;2023-02-25T18:58:00;14.85;;;5.63;;
24547;SDS011;12713;51.624;4.924;2023-02-25T19:00:28;9.63;;;5.10;;
24547;SDS011;12713;51.624;4.924;2023-02-25T19:03:01;12.90;;;4.50;;